RJSU(METAR)
02/28 07:00
METAR RJSU 272200Z 34006KT 9999 FEW020 M02/M08 Q1028 RMK 1CU020
A3036=
戻る
トップページへ戻る
IMOC Co,.Ltd.